Weather at Balcanoona Airport

Public forecast

Using degrees Celsius for public forecast. Weather courtesy of forecast.io.

Closest aviation weather report (METAR) to Balcanoona Airport

Closest report is Leigh Creek Airport, 47.2 nm (87.5 km) W. Retrieved 2021/06/12 16:00 UTC (14 minutes ago):

YLEC 121600Z AUTO 00000KT 9999 // NCD 08/03 Q1017

Closest aviation forecast (TAF) to Balcanoona Airport

Forecast is more than 12 hours old.

Closest forecast is Woomera Airfield, 135.0 nm (249.9 km) WSW. Retrieved 2021-06-12 00:00 UTC (16 hours ago):

TAF YPWR 112314Z 1200/1218 01008KT CAVOK FM120100 36013KT CAVOK FM120700 02010KT 9999 -SHRA NSC